Time;durP1;ratioP1;P1;durP2;ratioP2;P2;SDS_P1;SDS_P2;PMS_P1;PMS_P2;Temp;Humidity;BMP_temperature;BMP_pressure;BME280_temperature;BME280_humidity;BME280_pressure;Samples;Min_cycle;Max_cycle;Signal;HPM_P1;HPM_P2
2023/07/30 07:23:11;;;;;;;14.40;5.88;;;;;;;-145.79;84.34;76889.78;5277903;28;20905;-73
2023/07/30 07:25:43;;;;;;;14.18;5.30;;;;;;;-145.79;84.47;76877.06;5266895;28;20032;-72
2023/07/30 07:28:16;;;;;;;16.52;5.70;;;;;;;-145.79;83.89;76870.72;5276142;28;20390;-73
2023/07/30 07:30:47;;;;;;;19.05;5.78;;;;;;;-145.79;83.79;76853.75;5265337;28;20024;-73
2023/07/30 07:33:22;;;;;;;16.88;4.80;;;;;;;-145.79;83.36;76843.16;5268554;28;20035;-74
2023/07/30 07:36:07;;;;;;;10.07;4.97;;;;;;;-145.79;82.81;76834.69;5274371;28;20024;-73
2023/07/30 07:38:38;;;;;;;12.27;4.07;;;;;;;-145.79;81.99;76828.31;5267183;28;20036;-72
2023/07/30 07:41:19;;;;;;;12.88;5.65;;;;;;;-145.79;81.03;76834.69;5278036;28;20472;-72
2023/07/30 07:43:52;;;;;;;16.80;4.57;;;;;;;-145.79;81.55;76843.16;5271758;28;20104;-73
2023/07/30 07:46:27;;;;;;;15.98;4.65;;;;;;;-145.79;81.60;76836.81;5270484;28;20039;-72
2023/07/30 07:48:58;;;;;;;13.38;5.78;;;;;;;-145.79;80.93;76855.88;5266323;28;20033;-73
2023/07/30 07:51:30;;;;;;;13.02;4.45;;;;;;;-145.79;80.49;76853.75;5268269;28;20324;-73
2023/07/30 07:54:01;;;;;;;9.98;3.92;;;;;;;-145.79;80.23;76858.00;5274019;28;20060;-73
2023/07/30 07:56:35;;;;;;;14.02;6.07;;;;;;;-145.79;80.49;76851.63;5275761;28;20021;-73
2023/07/30 07:59:07;;;;;;;14.57;5.85;;;;;;;-145.79;80.01;76847.41;5270841;28;20032;-73
2023/07/30 08:01:38;;;;;;;10.80;4.00;;;;;;;-145.79;80.26;76828.31;5269402;28;20051;-73
2023/07/30 08:04:09;;;;;;;11.43;4.97;;;;;;;-145.79;79.65;76817.72;5267010;28;20059;-73
2023/07/30 08:06:41;;;;;;;14.50;4.28;;;;;;;-145.79;78.94;76800.78;5267343;28;20108;-74
2023/07/30 08:09:12;;;;;;;11.13;3.78;;;;;;;-145.79;79.19;76809.25;5270683;28;20024;-73
2023/07/30 08:11:43;;;;;;;10.23;3.63;;;;;;;-145.79;79.03;76813.50;5270620;28;20049;-73
2023/07/30 08:14:15;;;;;;;12.25;5.07;;;;;;;-145.79;78.60;76800.78;5274975;28;20033;-73
2023/07/30 08:16:49;;;;;;;15.07;4.82;;;;;;;-145.79;78.04;76792.31;5265953;28;20163;-73
2023/07/30 08:19:20;;;;;;;14.68;4.30;;;;;;;-145.79;76.93;76800.78;5270195;28;20032;-73
2023/07/30 08:21:52;;;;;;;12.65;4.07;;;;;;;-145.79;77.66;76800.78;5270384;28;20396;-73
2023/07/30 08:24:23;;;;;;;13.93;4.30;;;;;;;-145.79;77.54;76805.00;5266031;28;20056;-73
2023/07/30 08:26:54;;;;;;;10.77;4.22;;;;;;;-145.79;78.33;76800.78;5266126;28;20432;-73
2023/07/30 08:29:26;;;;;;;11.48;3.50;;;;;;;-145.79;76.91;76813.50;5276114;28;20017;-73
2023/07/30 08:31:57;;;;;;;13.10;4.05;;;;;;;-145.79;77.66;76813.50;5271248;28;20055;-73
2023/07/30 08:34:28;;;;;;;13.63;4.63;;;;;;;-145.79;77.62;76805.00;5261190;28;20033;-75
2023/07/30 08:37:00;;;;;;;7.72;4.32;;;;;;;-145.79;77.70;76798.66;5251538;28;20068;-73
2023/07/30 08:39:31;;;;;;;11.63;3.70;;;;;;;-145.79;77.72;76788.06;5254530;28;20112;-75
2023/07/30 08:42:03;;;;;;;13.77;3.80;;;;;;;-145.79;76.54;76792.31;5255786;28;20488;-73
2023/07/30 08:44:34;;;;;;;12.95;5.20;;;;;;;-145.79;76.99;76792.31;5262461;28;20028;-73
2023/07/30 08:47:06;;;;;;;13.10;4.93;;;;;;;-145.79;76.30;76785.94;5256129;28;20065;-73
2023/07/30 08:49:37;;;;;;;11.77;3.65;;;;;;;-145.79;76.61;76783.81;5254008;28;20039;-73
2023/07/30 08:52:10;;;;;;;10.77;4.00;;;;;;;-145.79;76.36;76788.06;5257212;28;20078;-73
2023/07/30 08:54:42;;;;;;;13.27;4.38;;;;;;;-145.79;76.93;76792.31;5256057;28;20384;-73
2023/07/30 08:57:17;;;;;;;13.50;4.25;;;;;;;-145.79;76.85;76783.81;5255167;28;20471;-73
2023/07/30 08:59:52;;;;;;;8.75;3.50;;;;;;;-145.79;76.66;76777.47;5251589;28;20033;-74
2023/07/30 09:02:33;;;;;;;15.63;5.05;;;;;;;-145.79;76.21;76766.88;5257272;28;20448;-73
2023/07/30 09:05:05;;;;;;;13.20;5.45;;;;;;;-145.79;74.92;76749.91;5254664;28;20064;-73
2023/07/30 09:07:37;;;;;;;13.52;3.72;;;;;;;-145.79;75.32;76752.03;5255811;28;20031;-75
2023/07/30 09:10:08;;;;;;;11.77;4.40;;;;;;;-145.79;74.94;76732.97;5255676;28;20025;-77
2023/07/30 09:12:40;;;;;;;12.13;5.15;;;;;;;-145.79;73.32;76724.47;5258132;28;20025;-73
2023/07/30 09:15:11;;;;;;;12.57;3.95;;;;;;;-145.79;72.79;76703.28;5259481;28;20025;-72
2023/07/30 09:17:42;;;;;;;13.95;4.43;;;;;;;-145.79;71.38;76707.53;5257209;28;20096;-74
2023/07/30 09:20:14;;;;;;;9.50;3.78;;;;;;;-145.79;71.92;76690.56;5254401;28;20031;-73
2023/07/30 09:22:48;;;;;;;11.30;4.63;;;;;;;-145.79;70.46;76665.16;5261831;28;20558;-73
2023/07/30 09:25:20;;;;;;;8.45;3.10;;;;;;;-145.79;67.58;76665.16;5259872;28;20341;-73
2023/07/30 09:27:52;;;;;;;7.63;3.38;;;;;;;-145.79;67.39;76658.78;5251431;28;20033;-73
2023/07/30 09:30:24;;;;;;;8.60;3.28;;;;;;;-145.79;67.30;76637.59;5260408;28;20370;-74
2023/07/30 09:32:57;;;;;;;8.00;2.85;;;;;;;-145.79;66.02;76633.34;5255931;28;20037;-74
2023/07/30 09:35:33;;;;;;;10.25;3.72;;;;;;;-145.79;66.38;76618.53;5260153;28;21643;-74
2023/07/30 09:38:04;;;;;;;10.75;3.20;;;;;;;-145.79;66.19;76622.75;5258974;28;20040;-73
2023/07/30 09:40:38;;;;;;;8.38;3.20;;;;;;;-145.79;67.15;76610.03;5262078;28;20086;-73
2023/07/30 09:43:10;;;;;;;8.23;2.97;;;;;;;-145.79;66.82;76597.31;5262754;28;20449;-76
2023/07/30 09:45:48;;;;;;;8.05;4.78;;;;;;;-145.79;65.24;76605.81;5258903;28;20042;-74
2023/07/30 09:48:20;;;;;;;14.40;9.07;;;;;;;-145.79;65.90;76627.00;5260075;28;20091;-73
2023/07/30 09:50:53;;;;;;;10.20;3.58;;;;;;;-145.79;66.33;76622.75;5260214;28;20029;-73
2023/07/30 09:53:24;;;;;;;12.68;4.25;;;;;;;-145.79;65.58;76629.13;5260657;28;20033;-74
2023/07/30 09:55:56;;;;;;;8.57;3.13;;;;;;;-145.79;66.28;76627.00;5254659;28;20021;-73
2023/07/30 09:58:27;;;;;;;6.88;2.65;;;;;;;-145.79;65.51;76627.00;5254668;28;20028;-73
2023/07/30 10:01:00;;;;;;;10.95;3.15;;;;;;;-145.79;64.86;76629.13;5255339;28;20033;-74
2023/07/30 10:03:35;;;;;;;9.30;3.00;;;;;;;-145.79;65.60;76631.22;5256594;28;20068;-73
2023/07/30 10:06:08;;;;;;;6.60;3.30;;;;;;;-145.79;63.93;76631.22;5262588;28;20021;-73
2023/07/30 10:08:40;;;;;;;9.60;2.88;;;;;;;-145.79;63.85;76639.72;5256351;28;20036;-73
2023/07/30 10:11:18;;;;;;;5.40;2.90;;;;;;;-145.79;64.59;76639.72;5254224;28;20523;-73
2023/07/30 10:13:51;;;;;;;9.43;3.28;;;;;;;-145.79;65.47;76650.31;5258488;28;20779;-73
2023/07/30 10:16:27;;;;;;;6.32;2.45;;;;;;;-145.79;64.66;76648.19;5258992;28;20031;-72
2023/07/30 10:18:58;;;;;;;7.47;2.40;;;;;;;-145.79;63.66;76656.66;5259606;28;20379;-72
2023/07/30 10:21:32;;;;;;;10.48;3.00;;;;;;;-145.79;63.97;76648.19;5249155;28;20046;-73
2023/07/30 10:24:04;;;;;;;6.90;2.47;;;;;;;-145.79;64.22;76639.72;5251258;28;20029;-73
2023/07/30 10:26:37;;;;;;;5.03;2.85;;;;;;;-145.79;63.95;76614.28;5255064;28;20435;-72
2023/07/30 10:29:19;;;;;;;7.07;3.22;;;;;;;-145.79;62.77;76580.38;5252938;28;20116;-74
2023/07/30 10:31:57;;;;;;;5.85;2.38;;;;;;;-145.79;61.47;76580.38;5250244;28;20377;-74
2023/07/30 10:34:47;;;;;;;5.43;2.22;;;;;;;-145.79;60.87;76605.81;5257194;28;20036;-73
2023/07/30 10:37:20;;;;;;;8.43;5.13;;;;;;;-145.79;61.93;76610.03;5252113;28;20032;-74
2023/07/30 10:39:51;;;;;;;4.38;2.78;;;;;;;-145.79;61.14;76620.63;5255320;28;20380;-72
2023/07/30 10:42:23;;;;;;;5.35;2.33;;;;;;;-145.79;60.98;76627.00;5245654;28;20033;-72
2023/07/30 10:44:57;;;;;;;4.85;1.98;;;;;;;-145.79;60.64;76607.91;5256661;28;20111;-72
2023/07/30 10:47:29;;;;;;;6.63;2.40;;;;;;;-145.79;59.54;76605.81;5258529;28;20029;-72
2023/07/30 10:50:02;;;;;;;7.25;2.45;;;;;;;-145.79;60.53;76590.97;5248937;28;20059;-72
2023/07/30 10:52:35;;;;;;;7.70;4.35;;;;;;;-145.79;60.30;76588.84;5257051;28;20468;-72
2023/07/30 10:55:07;;;;;;;5.50;2.80;;;;;;;-145.79;60.32;76597.31;5261975;28;20029;-71
2023/07/30 10:57:40;;;;;;;8.68;2.90;;;;;;;-145.79;60.96;76607.91;5251689;28;20029;-71
2023/07/30 11:00:12;;;;;;;6.72;2.10;;;;;;;-145.79;61.42;76599.44;5255504;28;20428;-72
2023/07/30 11:02:43;;;;;;;7.18;2.22;;;;;;;-145.79;60.80;76610.03;5253681;28;20112;-71
2023/07/30 11:05:14;;;;;;;5.90;2.83;;;;;;;-145.79;61.11;76627.00;5252695;28;20028;-72
2023/07/30 11:07:50;;;;;;;4.75;2.17;;;;;;;-145.79;62.10;76635.47;5253076;28;20025;-73
2023/07/30 11:10:21;;;;;;;;;;;;;;;-145.79;61.13;76648.19;5259848;28;20033;-73
2023/07/30 11:12:52;;;;;;;15.25;13.88;;;;;;;-145.79;64.28;76669.38;5261545;28;19986;-73
2023/07/30 11:15:24;;;;;;;5.50;2.65;;;;;;;-145.79;65.76;76699.06;5250897;28;20080;-72
2023/07/30 11:17:56;;;;;;;5.03;2.10;;;;;;;-145.79;66.69;76707.53;5249133;28;20036;-72
2023/07/30 11:20:28;;;;;;;9.80;2.83;;;;;;;-145.79;66.61;76724.47;5261639;28;20028;-72
2023/07/30 11:23:02;;;;;;;4.60;2.28;;;;;;;-145.79;66.55;76720.25;5260434;28;20401;-72
2023/07/30 11:25:34;;;;;;;5.17;2.20;;;;;;;-145.79;65.85;76707.53;5261223;28;20036;-72
2023/07/30 11:28:05;;;;;;;5.70;2.80;;;;;;;-145.79;66.44;76690.56;5258190;28;20016;-72
2023/07/30 11:30:36;;;;;;;5.63;2.10;;;;;;;-145.79;66.39;76667.25;5259557;28;20025;-73
2023/07/30 11:33:08;;;;;;;7.30;2.28;;;;;;;-145.79;65.30;76643.94;5252246;28;20031;-72
2023/07/30 11:35:40;;;;;;;5.55;2.20;;;;;;;-145.79;64.46;76627.00;5241578;28;20488;-71
2023/07/30 11:38:12;;;;;;;3.40;1.75;;;;;;;-145.79;64.21;76620.63;5247992;28;20484;-74
2023/07/30 11:40:44;;;;;;;5.07;1.75;;;;;;;-145.79;62.48;76631.22;5261311;28;20070;-72
2023/07/30 11:43:19;;;;;;;7.13;2.63;;;;;;;-145.79;62.31;76627.00;5262343;28;20032;-73
2023/07/30 11:46:15;;;;;;;7.03;2.50;;;;;;;-145.79;61.97;76616.41;5252811;28;20025;-73
2023/07/30 11:48:47;;;;;;;7.00;2.03;;;;;;;-145.79;61.90;76620.63;5243176;28;20303;-73
2023/07/30 11:51:24;;;;;;;5.20;1.90;;;;;;;-145.79;61.37;76571.91;5253463;28;20095;-73
2023/07/30 11:53:58;;;;;;;7.45;2.35;;;;;;;-145.79;58.26;76563.41;5247034;28;20045;-72
2023/07/30 11:56:31;;;;;;;6.03;1.70;;;;;;;-145.79;56.21;76557.06;5242242;28;20033;-73
2023/07/30 11:59:07;;;;;;;4.85;1.90;;;;;;;-145.79;55.76;76533.75;5241948;28;20026;-73
2023/07/30 12:01:42;;;;;;;7.15;2.38;;;;;;;-145.79;55.34;76504.09;5240655;28;20098;-73
2023/07/30 12:04:13;;;;;;;5.55;2.33;;;;;;;-145.79;55.72;76480.78;5241425;28;20028;-75
2023/07/30 12:06:47;;;;;;;6.22;1.95;;;;;;;-145.79;53.98;76499.84;5241796;28;20033;-72
2023/07/30 12:09:25;;;;;;;5.35;1.83;;;;;;;-145.79;52.79;76535.88;5243911;28;20326;-74
2023/07/30 12:11:58;;;;;;;3.70;1.50;;;;;;;-145.79;53.86;76546.47;5247382;28;20060;-74
2023/07/30 12:14:47;;;;;;;4.75;1.90;;;;;;;-145.79;54.70;76576.13;5262339;28;20028;-73
2023/07/30 12:17:18;;;;;;;9.07;2.78;;;;;;;-145.79;55.42;76569.78;5266329;28;20556;-75
2023/07/30 12:19:49;;;;;;;4.57;1.98;;;;;;;-145.79;55.79;76574.00;5265396;28;20107;-74
2023/07/30 12:22:21;;;;;;;5.40;1.58;;;;;;;-145.79;56.14;76574.00;5264850;28;20049;-73
2023/07/30 12:24:52;;;;;;;5.45;1.95;;;;;;;-145.79;56.19;76571.91;5268499;28;20024;-74
2023/07/30 12:27:24;;;;;;;3.75;2.42;;;;;;;-145.79;55.69;76578.25;5286775;28;20032;-74
2023/07/30 12:29:56;;;;;;;7.32;3.80;;;;;;;-145.79;56.05;76571.91;5250510;28;20083;-73
2023/07/30 12:32:29;;;;;;;5.70;2.22;;;;;;;-145.79;54.68;76584.59;5244278;28;20047;-73
2023/07/30 12:35:00;;;;;;;4.75;2.17;;;;;;;-145.79;54.73;76557.06;5244751;28;20376;-74
2023/07/30 12:37:32;;;;;;;4.22;1.50;;;;;;;-145.79;54.65;76516.78;5254822;28;20028;-74
2023/07/30 12:40:04;;;;;;;4.97;2.05;;;;;;;-145.79;54.14;76485.00;5259738;28;20029;-74
2023/07/30 12:42:36;;;;;;;5.30;1.60;;;;;;;-145.79;54.17;76453.22;5262829;28;20376;-74
2023/07/30 12:45:08;;;;;;;5.93;1.90;;;;;;;-145.79;53.44;76461.69;5258344;28;20025;-72
2023/07/30 12:47:41;;;;;;;3.45;2.03;;;;;;;-145.79;53.52;76485.00;5263603;28;20033;-74
2023/07/30 12:50:12;;;;;;;4.25;1.83;;;;;;;-145.79;52.84;76501.97;5264267;28;20033;-74
2023/07/30 12:52:44;;;;;;;4.95;2.08;;;;;;;-145.79;54.01;76516.78;5256168;28;20482;-74
2023/07/30 12:55:15;;;;;;;4.97;2.13;;;;;;;-145.79;55.09;76525.28;5255183;28;20528;-73
2023/07/30 12:57:47;;;;;;;4.20;1.60;;;;;;;-145.79;54.76;76538.00;5260350;28;20035;-74
2023/07/30 13:00:18;;;;;;;6.97;1.70;;;;;;;-145.79;55.25;76540.09;5258255;28;20033;-70
2023/07/30 13:02:55;;;;;;;3.20;1.70;;;;;;;-145.79;55.92;76548.59;5261329;28;20025;-74
2023/07/30 13:05:26;;;;;;;6.85;2.13;;;;;;;-145.79;56.10;76542.22;5263778;28;20469;-74
2023/07/30 13:08:00;;;;;;;4.30;2.10;;;;;;;-145.79;56.55;76542.22;5263159;28;20048;-74
2023/07/30 13:10:32;;;;;;;4.80;1.63;;;;;;;-145.79;55.71;76544.34;5262618;28;20035;-74
2023/07/30 13:13:04;;;;;;;4.55;1.85;;;;;;;-145.79;53.88;76518.91;5263809;28;20033;-74
2023/07/30 13:15:36;;;;;;;4.35;2.00;;;;;;;-145.79;52.51;76508.31;5264060;28;20486;-74
2023/07/30 13:18:09;;;;;;;3.70;1.88;;;;;;;-145.79;50.91;76474.41;5263081;28;20071;-74
2023/07/30 13:20:42;;;;;;;3.25;1.10;;;;;;;-145.79;50.45;76425.66;5263644;28;20104;-74
2023/07/30 13:23:13;;;;;;;4.80;1.50;;;;;;;-145.79;49.69;76444.75;5264351;28;20029;-74
2023/07/30 13:25:45;;;;;;;3.63;2.00;;;;;;;-145.79;50.15;76457.47;5263967;28;20387;-73
2023/07/30 13:28:17;;;;;;;3.30;1.30;;;;;;;-145.79;50.12;76474.41;5264813;28;20553;-74
2023/07/30 13:30:50;;;;;;;4.38;1.45;;;;;;;-145.79;50.07;76436.28;5264992;28;20037;-74
2023/07/30 13:33:22;;;;;;;6.40;1.30;;;;;;;-145.79;49.84;76440.50;5264462;28;20495;-73
2023/07/30 13:36:02;;;;;;;4.57;1.45;;;;;;;-145.79;49.16;76404.47;5264394;28;20029;-73
2023/07/30 13:38:38;;;;;;;5.28;1.50;;;;;;;-145.79;48.37;76415.06;5262616;28;20528;-73
2023/07/30 13:41:10;;;;;;;3.33;1.50;;;;;;;-145.79;48.34;76381.16;5255849;28;20021;-72
2023/07/30 13:43:41;;;;;;;5.63;2.30;;;;;;;-145.79;47.77;76406.59;5258108;28;20025;-73
2023/07/30 13:46:13;;;;;;;5.47;1.63;;;;;;;-145.79;48.41;76427.78;5258176;28;20472;-72
2023/07/30 13:48:44;;;;;;;5.07;1.65;;;;;;;-145.79;48.82;76381.16;5258766;28;20028;-73
2023/07/30 13:51:18;;;;;;;9.00;5.45;;;;;;;-145.79;48.36;76349.38;5258103;28;20029;-73
2023/07/30 13:53:50;;;;;;;11.20;9.07;;;;;;;-145.79;47.82;76355.75;5260751;28;20025;-72
2023/07/30 13:56:22;;;;;;;4.22;1.73;;;;;;;-145.79;48.38;76362.09;5262407;28;20051;-72
2023/07/30 13:58:54;;;;;;;5.70;2.13;;;;;;;-145.79;48.30;76334.56;5263306;28;20036;-73
2023/07/30 14:01:26;;;;;;;5.95;2.33;;;;;;;-145.79;47.67;76355.75;5262116;28;20025;-72
2023/07/30 14:03:57;;;;;;;5.82;2.15;;;;;;;-145.79;48.58;76376.94;5254822;28;20446;-73
2023/07/30 14:06:31;;;;;;;4.07;1.50;;;;;;;-145.79;48.90;76393.88;5259576;28;20021;-72
2023/07/30 14:09:04;;;;;;;5.88;1.65;;;;;;;-145.79;49.35;76398.13;5258824;28;20104;-73
2023/07/30 14:11:37;;;;;;;5.85;1.92;;;;;;;-145.79;50.25;76412.97;5257818;28;20016;-72
2023/07/30 14:14:09;;;;;;;6.38;1.60;;;;;;;-145.79;50.52;76446.88;5255061;28;20025;-73
2023/07/30 14:16:40;;;;;;;4.95;1.85;;;;;;;-145.79;50.83;76440.50;5259527;28;20029;-72
2023/07/30 14:19:12;;;;;;;4.40;1.98;;;;;;;-145.79;51.13;76438.38;5256692;28;20052;-70
2023/07/30 14:21:43;;;;;;;7.15;1.58;;;;;;;-145.79;51.08;76448.97;5259987;28;20060;-71
2023/07/30 14:24:18;;;;;;;3.67;1.73;;;;;;;-145.79;51.08;76404.47;5262802;28;20017;-72
2023/07/30 14:26:50;;;;;;;3.65;1.50;;;;;;;-145.79;50.75;76402.38;5260661;28;20033;-72
2023/07/30 14:29:21;;;;;;;3.75;1.80;;;;;;;-145.79;51.16;76391.78;5261543;28;20039;-72
2023/07/30 14:31:53;;;;;;;5.40;1.70;;;;;;;-145.79;50.50;76391.78;5259382;28;20490;-72
2023/07/30 14:34:27;;;;;;;7.80;5.13;;;;;;;-145.79;51.19;76385.41;5262832;28;20048;-74
2023/07/30 14:37:03;;;;;;;6.90;2.10;;;;;;;-145.79;49.38;76385.41;5260601;28;20112;-75
2023/07/30 14:39:35;;;;;;;6.70;1.80;;;;;;;-145.79;49.20;76391.78;5262708;28;20302;-75
2023/07/30 14:42:07;;;;;;;4.10;1.77;;;;;;;-145.79;49.90;76396.00;5261934;28;20021;-75
2023/07/30 14:44:39;;;;;;;4.85;1.95;;;;;;;-145.79;49.81;76391.78;5262556;28;20025;-74
2023/07/30 14:47:13;;;;;;;3.75;1.77;;;;;;;-145.79;49.35;76366.34;5262044;28;20037;-76
2023/07/30 14:49:45;;;;;;;5.85;1.92;;;;;;;-145.79;48.60;76347.25;5261744;28;20048;-75
2023/07/30 14:52:16;;;;;;;4.55;2.05;;;;;;;-145.79;47.97;76338.78;5261758;28;20420;-75
2023/07/30 14:54:48;;;;;;;4.10;1.77;;;;;;;-145.79;47.13;76347.25;5261860;28;20025;-74
2023/07/30 14:57:20;;;;;;;8.23;1.80;;;;;;;-145.79;45.89;76336.66;5260315;28;20028;-73
2023/07/30 14:59:53;;;;;;;5.60;2.22;;;;;;;-145.79;46.39;76334.56;5261683;28;20025;-74
2023/07/30 15:02:24;;;;;;;3.47;1.70;;;;;;;-145.79;46.72;76323.97;5261468;28;20116;-74
2023/07/30 15:04:56;;;;;;;5.07;2.58;;;;;;;-145.79;45.48;76338.78;5261642;28;20104;-75
2023/07/30 15:07:28;;;;;;;5.18;1.80;;;;;;;-145.79;46.07;76343.03;5261434;28;20025;-74
2023/07/30 15:09:59;;;;;;;4.18;1.77;;;;;;;-145.79;46.34;76345.16;5258351;28;20422;-73
2023/07/30 15:12:30;;;;;;;4.60;2.08;;;;;;;-145.79;46.27;76321.84;5260148;28;20044;-73
2023/07/30 15:15:04;;;;;;;6.47;2.40;;;;;;;-145.79;45.20;76317.59;5261547;28;20029;-73
2023/07/30 15:17:35;;;;;;;8.23;3.75;;;;;;;-145.79;44.67;76330.31;5260701;28;20029;-73
2023/07/30 15:20:08;;;;;;;7.55;3.33;;;;;;;-145.79;45.17;76332.44;5261434;28;20033;-73
2023/07/30 15:22:39;;;;;;;7.03;3.78;;;;;;;-145.79;45.55;76338.78;5260957;28;20045;-73
2023/07/30 15:25:11;;;;;;;4.93;2.50;;;;;;;-145.79;45.25;76343.03;5260589;28;20025;-73
2023/07/30 15:27:42;;;;;;;5.95;2.05;;;;;;;-145.79;45.64;76343.03;5256283;28;20055;-73
2023/07/30 15:30:13;;;;;;;4.53;2.00;;;;;;;-145.79;45.83;76336.66;5261496;28;20029;-73
2023/07/30 15:32:45;;;;;;;7.03;2.05;;;;;;;-145.79;44.65;76338.78;5260203;28;20032;-73
2023/07/30 15:35:16;;;;;;;7.28;2.10;;;;;;;-145.79;44.67;76338.78;5261425;28;20029;-73
2023/07/30 15:37:51;;;;;;;5.88;2.70;;;;;;;-145.79;44.02;76340.91;5261158;28;20081;-73
2023/07/30 15:40:22;;;;;;;10.25;6.82;;;;;;;-145.79;43.90;76330.31;5255038;28;20029;-74
2023/07/30 15:42:54;;;;;;;5.65;2.50;;;;;;;-145.79;42.18;76351.50;5261777;28;20029;-72
2023/07/30 15:45:25;;;;;;;4.72;1.88;;;;;;;-145.79;42.79;76347.25;5263025;28;20025;-73
2023/07/30 15:47:58;;;;;;;6.60;2.20;;;;;;;-145.79;42.39;76368.47;5265255;28;20468;-72
2023/07/30 15:50:29;;;;;;;8.05;1.88;;;;;;;-145.79;43.60;76353.63;5265183;28;20415;-73
2023/07/30 15:53:00;;;;;;;3.95;2.13;;;;;;;-145.79;43.60;76347.25;5264147;28;20086;-73
2023/07/30 15:55:33;;;;;;;6.07;2.28;;;;;;;-145.79;43.65;76368.47;5265234;28;20082;-73
2023/07/30 15:58:04;;;;;;;4.40;2.10;;;;;;;-145.79;43.98;76372.69;5265045;28;20154;-73
2023/07/30 16:00:35;;;;;;;6.43;2.33;;;;;;;-145.79;43.99;76376.94;5264201;28;20104;-73
2023/07/30 16:03:07;;;;;;;6.65;2.10;;;;;;;-145.79;44.15;76389.66;5263317;28;20040;-73
2023/07/30 16:05:45;;;;;;;7.25;2.58;;;;;;;-145.79;44.75;76398.13;5265110;28;20049;-73
2023/07/30 16:08:16;;;;;;;7.70;3.05;;;;;;;-145.79;44.78;76404.47;5264342;28;20482;-73
2023/07/30 16:10:48;;;;;;;5.90;3.28;;;;;;;-145.79;45.32;76402.38;5264588;28;20025;-73
2023/07/30 16:13:25;;;;;;;5.28;2.35;;;;;;;-145.79;46.07;76415.06;5263840;28;20029;-73
2023/07/30 16:16:17;;;;;;;8.90;2.80;;;;;;;-145.79;46.65;76421.44;5265219;28;20047;-73
2023/07/30 16:18:51;;;;;;;10.77;3.83;;;;;;;-145.79;47.45;76444.75;5255241;28;20040;-73
2023/07/30 16:21:22;;;;;;;9.55;3.08;;;;;;;-145.79;48.02;76461.69;5263548;28;20108;-73
2023/07/30 16:23:54;;;;;;;12.88;3.55;;;;;;;-145.79;48.63;76465.94;5264948;28;20039;-73
2023/07/30 16:26:25;;;;;;;8.07;2.80;;;;;;;-145.79;49.61;76482.88;5264846;28;20029;-73
2023/07/30 16:28:56;;;;;;;6.32;2.88;;;;;;;-145.79;50.35;76474.41;5263899;28;20055;-73
2023/07/30 16:31:28;;;;;;;7.18;2.60;;;;;;;-145.79;50.70;76482.88;5264427;28;20531;-73
2023/07/30 16:34:00;;;;;;;8.82;3.70;;;;;;;-145.79;51.54;76504.09;5262294;28;20053;-73
2023/07/30 16:36:31;;;;;;;7.35;2.92;;;;;;;-145.79;52.15;76512.56;5263297;28;20474;-74
2023/07/30 16:39:04;;;;;;;6.13;3.00;;;;;;;-145.79;52.73;76521.03;5264293;28;20108;-73
2023/07/30 16:41:35;;;;;;;9.02;3.10;;;;;;;-145.79;54.32;76540.09;5263743;28;20031;-73
2023/07/30 16:44:10;;;;;;;8.57;3.40;;;;;;;-145.79;55.39;76554.94;5263972;28;20037;-72
2023/07/30 16:46:41;;;;;;;15.97;3.60;;;;;;;-145.79;56.16;76559.19;5264163;28;20029;-73
2023/07/30 16:49:12;;;;;;;13.80;3.40;;;;;;;-145.79;57.95;76588.84;5263046;28;20522;-73
2023/07/30 16:51:44;;;;;;;16.60;3.97;;;;;;;-145.79;59.38;76622.75;5263480;28;20017;-73
2023/07/30 16:54:15;;;;;;;12.27;3.53;;;;;;;-145.79;60.61;76646.06;5263343;28;20016;-74
